createdAt,value
2019-04-05T00:01:34.367Z,73.40
2019-04-05T00:04:00.710Z,73.40
2019-04-05T00:06:26.941Z,73.40
2019-04-05T00:08:53.383Z,73.90
2019-04-05T00:11:19.687Z,74.50
2019-04-05T00:13:45.927Z,73.70
2019-04-05T00:16:12.255Z,73.60
2019-04-05T00:18:38.515Z,73.90
2019-04-05T00:21:04.969Z,73.90
2019-04-05T00:23:31.293Z,74.00
2019-04-05T00:25:57.550Z,74.10
2019-04-05T00:28:23.787Z,74.20
2019-04-05T00:30:50.040Z,74.50
2019-04-05T00:33:16.283Z,74.50
2019-04-05T00:35:42.516Z,74.50
2019-04-05T00:38:08.845Z,75.20
2019-04-05T00:40:35.101Z,74.70
2019-04-05T00:43:01.326Z,74.80
2019-04-05T00:45:28.769Z,74.90
2019-04-05T00:47:55.205Z,74.90
2019-04-05T00:50:23.445Z,75.60
2019-04-05T00:52:49.772Z,74.90
2019-04-05T00:55:16.088Z,75.20
2019-04-05T00:57:42.300Z,75.00
2019-04-05T01:00:10.854Z,75.00
2019-04-05T01:02:37.066Z,75.00
2019-04-05T01:05:05.333Z,75.20
2019-04-05T01:07:31.642Z,75.10
2019-04-05T01:09:57.984Z,75.30
2019-04-05T01:12:24.609Z,75.90
2019-04-05T01:14:52.649Z,76.30
2019-04-05T01:17:24.849Z,75.30
2019-04-05T01:19:49.582Z,75.20
2019-04-05T01:22:18.648Z,75.80
2019-04-05T01:24:44.863Z,75.80
2019-04-05T01:27:12.793Z,75.70
2019-04-05T01:29:39.232Z,75.60
2019-04-05T01:32:05.467Z,75.30
2019-04-05T01:34:31.789Z,75.30
2019-04-05T01:36:58.221Z,75.40
2019-04-05T01:39:24.468Z,75.50
2019-04-05T01:41:50.896Z,75.60
2019-04-05T01:44:17.535Z,75.50
2019-04-05T01:46:43.935Z,75.40
2019-04-05T01:49:10.465Z,75.20
2019-04-05T01:51:37.005Z,75.10
2019-04-05T01:54:03.522Z,75.00
2019-04-05T01:56:30.105Z,75.00
2019-04-05T01:58:56.321Z,75.00
2019-04-05T02:01:22.645Z,74.90
2019-04-05T02:03:49.177Z,75.00
2019-04-05T02:06:15.496Z,75.00
2019-04-05T02:08:41.738Z,75.00
2019-04-05T02:11:27.935Z,75.70
2019-04-05T02:13:54.578Z,75.20
2019-04-05T02:16:21.564Z,75.40
2019-04-05T02:18:47.782Z,75.30
2019-04-05T02:21:14.024Z,75.00
2019-04-05T02:23:40.448Z,75.00
2019-04-05T02:26:06.967Z,74.80
2019-04-05T02:28:33.196Z,74.80
2019-04-05T02:30:59.579Z,75.10
2019-04-05T02:33:25.918Z,75.20
2019-04-05T02:35:52.125Z,74.90
2019-04-05T02:38:18.461Z,74.80
2019-04-05T02:40:47.278Z,74.70
2019-04-05T02:43:17.521Z,74.80
2019-04-05T02:45:47.559Z,74.80
2019-04-05T02:48:37.505Z,75.00
2019-04-05T02:51:06.330Z,74.60
2019-04-05T02:53:35.538Z,74.50
2019-04-05T02:56:03.253Z,74.50
2019-04-05T02:58:31.905Z,74.30
2019-04-05T03:00:58.843Z,74.00
2019-04-05T03:03:25.303Z,74.30
2019-04-05T03:05:51.648Z,74.30
2019-04-05T03:08:18.535Z,74.40
2019-04-05T03:10:59.479Z,74.40
2019-04-05T03:13:29.907Z,74.50
2019-04-05T03:16:01.681Z,74.40
2019-04-05T03:18:30.172Z,74.20
2019-04-05T03:21:02.111Z,74.40
2019-04-05T03:23:51.217Z,74.50
2019-04-05T03:26:22.849Z,74.40
2019-04-05T03:28:54.601Z,74.50
2019-04-05T03:31:24.943Z,74.50
2019-04-05T03:33:50.102Z,74.40
2019-04-05T03:36:16.814Z,74.20
2019-04-05T03:38:44.547Z,74.10
2019-04-05T03:41:11.074Z,74.20
2019-04-05T03:43:38.396Z,74.70
2019-04-05T03:46:05.208Z,74.60
2019-04-05T03:48:31.962Z,74.60
2019-04-05T03:50:58.501Z,74.60
2019-04-05T03:53:25.270Z,74.70
2019-04-05T03:55:51.671Z,74.70
2019-04-05T03:58:18.995Z,74.60
2019-04-05T04:00:45.251Z,74.60
2019-04-05T04:03:12.074Z,74.60
2019-04-05T04:05:38.593Z,74.80
2019-04-05T04:08:04.956Z,74.80
2019-04-05T04:10:31.178Z,74.70
2019-04-05T04:12:57.719Z,74.80
2019-04-05T04:15:24.555Z,74.50
2019-04-05T04:17:51.187Z,74.40
2019-04-05T04:20:32.319Z,74.40
2019-04-05T04:22:58.873Z,74.80
2019-04-05T04:25:26.931Z,74.30
2019-04-05T04:27:53.150Z,74.30
2019-04-05T04:30:19.770Z,74.30
2019-04-05T04:32:46.211Z,74.40
2019-04-05T04:35:12.856Z,74.60
2019-04-05T04:37:39.603Z,74.60
2019-04-05T04:40:06.052Z,74.50
2019-04-05T04:42:32.815Z,74.30
2019-04-05T04:45:11.231Z,74.30
2019-04-05T04:47:27.631Z,74.20
2019-04-05T04:49:56.208Z,74.10
2019-04-05T04:52:23.037Z,74.50
2019-04-05T04:54:49.367Z,74.30
2019-04-05T04:57:15.993Z,74.10
2019-04-05T04:59:42.272Z,74.10
2019-04-05T05:02:09.404Z,74.30
2019-04-05T05:04:36.445Z,74.30
2019-04-05T05:07:03.192Z,74.40
2019-04-05T05:09:30.317Z,74.50
2019-04-05T05:11:56.904Z,74.50
2019-04-05T05:14:24.177Z,74.40
2019-04-05T05:16:50.647Z,75.00
2019-04-05T05:19:17.269Z,74.90
2019-04-05T05:21:44.152Z,75.10
2019-04-05T05:24:10.765Z,75.10
2019-04-05T05:26:37.094Z,75.00
2019-04-05T05:29:03.839Z,75.00
2019-04-05T05:31:30.154Z,75.20
2019-04-05T05:33:59.662Z,75.70
2019-04-05T05:36:26.368Z,74.80
2019-04-05T05:38:53.051Z,74.60
2019-04-05T05:41:19.277Z,74.50
2019-04-05T05:43:45.618Z,74.60
2019-04-05T05:46:11.942Z,74.60
2019-04-05T05:48:38.386Z,74.60
2019-04-05T05:51:04.631Z,74.90
2019-04-05T05:53:30.866Z,75.20
2019-04-05T05:55:57.105Z,75.60
2019-04-05T05:58:25.371Z,75.80
2019-04-05T06:00:51.746Z,76.20
2019-04-05T06:03:18.000Z,76.20
2019-04-05T06:05:44.224Z,76.40
2019-04-05T06:08:10.479Z,76.30
2019-04-05T06:10:36.713Z,76.50
2019-04-05T06:13:06.726Z,76.70
2019-04-05T06:15:31.278Z,76.60
2019-04-05T06:18:04.549Z,76.60
2019-04-05T06:20:25.692Z,76.40
2019-04-05T06:22:52.216Z,76.30
2019-04-05T06:25:18.497Z,76.50
2019-04-05T06:27:44.787Z,76.70
2019-04-05T06:30:11.297Z,76.70
2019-04-05T06:32:37.543Z,76.80
2019-04-05T06:35:05.482Z,76.60
2019-04-05T06:37:31.702Z,76.40
2019-04-05T06:39:57.930Z,76.50
2019-04-05T06:42:24.340Z,76.50
2019-04-05T06:44:50.564Z,76.50
2019-04-05T06:47:16.801Z,76.40
2019-04-05T06:49:43.019Z,82.80
2019-04-05T06:52:09.233Z,81.70
2019-04-05T06:54:35.497Z,82.40
2019-04-05T06:57:01.726Z,79.20
2019-04-05T06:59:27.985Z,78.20
2019-04-05T07:01:54.215Z,79.70
2019-04-05T07:04:20.447Z,78.10
2019-04-05T07:06:46.668Z,77.00
2019-04-05T07:09:12.906Z,76.40
2019-04-05T07:11:39.148Z,76.10
2019-04-05T07:14:05.381Z,76.00
2019-04-05T07:16:31.634Z,76.00
2019-04-05T07:18:57.956Z,76.10
2019-04-05T07:21:24.187Z,76.30
2019-04-05T07:23:50.733Z,76.40
2019-04-05T07:26:17.099Z,76.40
2019-04-05T07:28:43.333Z,76.50
2019-04-05T07:31:09.584Z,76.50
2019-04-05T07:33:35.839Z,76.80
2019-04-05T07:36:03.581Z,77.00
2019-04-05T07:38:30.085Z,77.30
2019-04-05T07:40:56.417Z,77.60
2019-04-05T07:43:22.643Z,77.60
2019-04-05T07:45:48.861Z,77.90
2019-04-05T07:48:15.096Z,78.20
2019-04-05T07:50:41.379Z,78.50
2019-04-05T07:53:07.714Z,79.00
2019-04-05T07:55:33.954Z,79.30
2019-04-05T07:58:00.183Z,79.90
2019-04-05T08:00:43.819Z,79.10
2019-04-05T08:03:10.348Z,79.00
2019-04-05T08:05:36.891Z,78.60
2019-04-05T08:08:06.045Z,78.10
2019-04-05T08:10:33.667Z,78.20
2019-04-05T08:13:02.555Z,78.10
2019-04-05T08:15:28.760Z,78.00
2019-04-05T08:17:54.974Z,77.30
2019-04-05T08:20:21.214Z,76.90
2019-04-05T08:22:50.543Z,76.50
2019-04-05T08:25:16.845Z,76.30
2019-04-05T08:27:43.073Z,76.60
2019-04-05T08:30:09.483Z,76.40
2019-04-05T08:32:35.703Z,75.90
2019-04-05T08:35:04.444Z,76.00
2019-04-05T08:37:30.676Z,75.70
2019-04-05T08:39:56.898Z,75.40
2019-04-05T08:42:23.134Z,75.30
2019-04-05T08:44:49.371Z,75.00
2019-04-05T08:47:15.610Z,74.50
2019-04-05T08:49:41.865Z,74.60
2019-04-05T08:52:08.111Z,74.70
2019-04-05T08:54:36.769Z,72.90
2019-04-05T08:57:03.567Z,72.60
2019-04-05T08:59:29.837Z,73.00
2019-04-05T09:01:56.068Z,72.80
2019-04-05T09:04:22.283Z,72.80
2019-04-05T09:06:48.515Z,73.20
2019-04-05T09:09:14.736Z,73.50
2019-04-05T09:11:40.982Z,73.60
2019-04-05T09:14:07.238Z,73.70
2019-04-05T09:16:33.513Z,72.50
2019-04-05T09:18:59.734Z,71.60
2019-04-05T09:21:25.958Z,71.90
2019-04-05T09:23:52.204Z,70.70
2019-04-05T09:26:18.422Z,70.50
2019-04-05T09:28:44.660Z,70.00
2019-04-05T09:31:11.014Z,70.40
2019-04-05T09:33:37.273Z,69.10
2019-04-05T09:36:03.817Z,67.40
2019-04-05T09:38:30.051Z,66.80
2019-04-05T09:40:56.284Z,65.60
2019-04-05T09:43:22.836Z,64.80
2019-04-05T09:45:49.081Z,65.00
2019-04-05T09:48:15.289Z,65.10
2019-04-05T09:50:41.547Z,66.40
2019-04-05T09:53:07.797Z,67.00
2019-04-05T09:55:34.051Z,66.50
2019-04-05T09:58:00.250Z,67.60
2019-04-05T10:00:27.485Z,67.30
2019-04-05T10:02:53.707Z,67.50
2019-04-05T10:05:20.079Z,67.60
2019-04-05T10:07:54.811Z,68.80
2019-04-05T10:10:15.248Z,69.60
2019-04-05T10:12:41.489Z,70.10
2019-04-05T10:15:07.923Z,70.00
2019-04-05T10:17:34.151Z,70.20
2019-04-05T10:20:00.359Z,69.90
2019-04-05T10:22:26.599Z,70.90
2019-04-05T10:24:52.927Z,70.20
2019-04-05T10:27:19.170Z,70.30
2019-04-05T10:29:45.392Z,69.90
2019-04-05T10:32:11.612Z,70.50
2019-04-05T10:34:39.067Z,70.70
2019-04-05T10:37:05.278Z,70.20
2019-04-05T10:39:31.551Z,69.80
2019-04-05T10:42:03.618Z,70.40
2019-04-05T10:44:26.497Z,69.70
2019-04-05T10:46:52.727Z,69.50
2019-04-05T10:49:18.945Z,70.40
2019-04-05T10:51:45.225Z,70.70
2019-04-05T10:54:11.440Z,68.70
2019-04-05T10:56:37.714Z,67.80
2019-04-05T10:59:04.048Z,68.00
2019-04-05T11:01:30.322Z,67.80
2019-04-05T11:03:58.541Z,68.40
2019-04-05T11:06:24.764Z,68.60
2019-04-05T11:08:51.001Z,69.20
2019-04-05T11:11:17.230Z,68.90
2019-04-05T11:13:43.817Z,68.90
2019-04-05T11:16:10.084Z,68.10
2019-04-05T11:18:36.334Z,68.00
2019-04-05T11:21:02.839Z,66.90
2019-04-05T11:23:29.086Z,67.60
2019-04-05T11:25:55.322Z,67.20
2019-04-05T11:28:21.811Z,67.50
2019-04-05T11:30:48.459Z,67.60
2019-04-05T11:33:15.039Z,67.70
2019-04-05T11:35:41.765Z,67.40
2019-04-05T11:38:08.180Z,67.40
2019-04-05T11:40:35.009Z,66.60
2019-04-05T11:43:02.054Z,67.20
2019-04-05T11:45:28.789Z,67.70
2019-04-05T11:47:57.699Z,67.30
2019-04-05T11:50:34.341Z,67.30
2019-04-05T11:52:53.439Z,68.40
2019-04-05T11:55:19.668Z,67.90
2019-04-05T11:57:45.898Z,67.40
2019-04-05T12:00:17.825Z,66.60
2019-04-05T12:02:48.607Z,66.60
2019-04-05T12:05:16.735Z,66.20
2019-04-05T12:07:43.302Z,67.00
2019-04-05T12:10:09.943Z,66.90
2019-04-05T12:12:36.164Z,68.00
2019-04-05T12:15:06.493Z,68.00
2019-04-05T12:17:35.035Z,68.00
2019-04-05T12:20:02.708Z,67.30
2019-04-05T12:22:29.730Z,66.70
2019-04-05T12:24:55.966Z,67.70
2019-04-05T12:27:22.207Z,66.60
2019-04-05T12:29:48.425Z,67.20
2019-04-05T12:32:18.128Z,65.20
2019-04-05T12:34:44.518Z,64.70
2019-04-05T12:37:10.771Z,65.10
2019-04-05T12:39:37.285Z,63.50
2019-04-05T12:42:03.756Z,64.30
2019-04-05T12:44:29.994Z,64.30
2019-04-05T12:46:56.244Z,64.10
2019-04-05T12:49:22.472Z,63.20
2019-04-05T12:51:48.701Z,62.60
2019-04-05T12:54:15.157Z,62.80
2019-04-05T12:56:41.724Z,63.40
2019-04-05T12:59:07.998Z,63.90
2019-04-05T13:01:34.235Z,63.90
2019-04-05T13:04:00.707Z,62.60
2019-04-05T13:06:26.968Z,62.40
2019-04-05T13:08:53.738Z,62.80
2019-04-05T13:11:20.813Z,63.80
2019-04-05T13:13:47.052Z,63.80
2019-04-05T13:16:13.328Z,62.60
2019-04-05T13:18:39.662Z,63.50
2019-04-05T13:21:14.562Z,63.50
2019-04-05T13:23:35.955Z,62.60
2019-04-05T13:26:02.552Z,62.80
2019-04-05T13:28:28.784Z,63.00
2019-04-05T13:30:55.536Z,61.50
2019-04-05T13:33:23.606Z,61.40
2019-04-05T13:35:50.115Z,61.90
2019-04-05T13:38:17.164Z,62.30
2019-04-05T13:40:45.300Z,62.50
2019-04-05T13:43:11.547Z,61.50
2019-04-05T13:45:37.892Z,61.40
2019-04-05T13:48:04.109Z,62.30
2019-04-05T13:50:30.752Z,62.20
2019-04-05T13:52:56.987Z,62.50
2019-04-05T13:55:23.215Z,63.40
2019-04-05T13:57:49.451Z,63.30
2019-04-05T14:00:18.169Z,64.00
2019-04-05T14:02:44.679Z,63.50
2019-04-05T14:05:11.410Z,63.70
2019-04-05T14:07:37.658Z,62.90
2019-04-05T14:10:10.642Z,63.60
2019-04-05T14:12:35.475Z,63.70
2019-04-05T14:15:02.184Z,63.80
2019-04-05T14:17:28.403Z,63.70
2019-04-05T14:19:54.636Z,63.20
2019-04-05T14:22:22.477Z,63.30
2019-04-05T14:24:50.432Z,63.70
2019-04-05T14:27:17.468Z,63.50
2019-04-05T14:29:43.707Z,63.20
2019-04-05T14:32:20.471Z,63.80
2019-04-05T14:34:38.062Z,63.90
2019-04-05T14:37:04.673Z,63.90
2019-04-05T14:39:30.932Z,64.00
2019-04-05T14:42:09.123Z,64.10
2019-04-05T14:44:25.551Z,62.80
2019-04-05T14:46:51.761Z,64.00
2019-04-05T14:49:18.026Z,62.80
2019-04-05T14:51:53.577Z,63.20
2019-04-05T14:54:12.685Z,63.70
2019-04-05T14:56:38.937Z,63.70
2019-04-05T14:59:05.176Z,63.90
2019-04-05T15:01:31.511Z,64.30
2019-04-05T15:03:58.602Z,65.00
2019-04-05T15:06:26.609Z,64.00
2019-04-05T15:08:52.961Z,63.30
2019-04-05T15:11:19.184Z,63.80
2019-04-05T15:13:45.417Z,63.80
2019-04-05T15:16:14.445Z,64.30
2019-04-05T15:18:39.835Z,63.80
2019-04-05T15:21:06.637Z,63.80
2019-04-05T15:23:32.930Z,63.80
2019-04-05T15:25:59.157Z,64.40
2019-04-05T15:28:25.418Z,63.80
2019-04-05T15:30:55.904Z,64.50
2019-04-05T15:33:20.342Z,63.80
2019-04-05T15:35:46.564Z,64.50
2019-04-05T15:38:12.821Z,64.60
2019-04-05T15:40:39.037Z,65.20
2019-04-05T15:43:05.263Z,65.60
2019-04-05T15:45:31.601Z,66.00
2019-04-05T15:47:57.826Z,66.40
2019-04-05T15:50:24.950Z,65.40
2019-04-05T15:52:51.198Z,65.90
2019-04-05T15:55:17.424Z,65.40
2019-04-05T15:57:43.641Z,66.30
2019-04-05T16:00:12.977Z,65.70
2019-04-05T16:02:39.435Z,66.00
2019-04-05T16:05:07.163Z,66.40
2019-04-05T16:07:33.425Z,66.90
2019-04-05T16:09:59.652Z,66.50
2019-04-05T16:12:25.898Z,66.60
2019-04-05T16:14:52.126Z,66.60
2019-04-05T16:17:18.379Z,67.10
2019-04-05T16:19:44.665Z,67.30
2019-04-05T16:22:10.973Z,67.70
2019-04-05T16:24:37.522Z,68.10
2019-04-05T16:27:03.941Z,69.90
2019-04-05T16:29:30.187Z,70.10
2019-04-05T16:31:56.427Z,69.70
2019-04-05T16:34:22.674Z,69.60
2019-04-05T16:36:48.934Z,69.50
2019-04-05T16:39:17.066Z,69.00
2019-04-05T16:41:43.329Z,69.40
2019-04-05T16:44:09.564Z,70.00
2019-04-05T16:46:35.819Z,70.00
2019-04-05T16:49:02.047Z,70.40
2019-04-05T16:51:28.307Z,70.70
2019-04-05T16:53:58.494Z,72.70
2019-04-05T16:56:24.713Z,71.10
2019-04-05T16:58:50.968Z,70.70
2019-04-05T17:01:27.041Z,70.20
2019-04-05T17:03:45.373Z,69.60
2019-04-05T17:06:11.611Z,67.80
2019-04-05T17:09:57.736Z,68.00
2019-04-05T17:12:24.252Z,66.70
2019-04-05T17:14:50.533Z,66.90
2019-04-05T17:17:16.762Z,67.20
2019-04-05T17:19:43.019Z,67.10
2019-04-05T17:22:09.270Z,68.10
2019-04-05T17:24:35.510Z,67.80
2019-04-05T17:27:01.810Z,69.50
2019-04-05T17:29:28.052Z,69.90
2019-04-05T17:31:54.339Z,70.20
2019-04-05T17:34:20.563Z,69.20
2019-04-05T17:36:46.794Z,68.70
2019-04-05T17:39:13.019Z,68.70
2019-04-05T17:41:39.372Z,68.10
2019-04-05T17:44:05.689Z,69.10
2019-04-05T17:46:31.937Z,69.70
2019-04-05T17:48:58.214Z,70.10
2019-04-05T17:51:27.296Z,71.00
2019-04-05T17:53:53.536Z,70.20
2019-04-05T17:56:19.968Z,69.80
2019-04-05T17:58:46.992Z,70.00
2019-04-05T18:01:13.425Z,70.90
2019-04-05T18:03:39.653Z,70.20
2019-04-05T18:06:05.933Z,70.60
2019-04-05T18:08:32.162Z,71.20
2019-04-05T18:10:58.496Z,71.00
2019-04-05T18:13:24.725Z,71.50
2019-04-05T18:15:52.628Z,72.00
2019-04-05T18:18:19.310Z,72.30
2019-04-05T18:20:45.553Z,72.60
2019-04-05T18:23:23.920Z,73.20
2019-04-05T18:25:39.956Z,73.30
2019-04-05T18:28:06.461Z,73.40
2019-04-05T18:30:32.797Z,73.60
2019-04-05T18:32:59.020Z,73.90
2019-04-05T18:35:25.260Z,74.00
2019-04-05T18:37:52.124Z,74.10
2019-04-05T18:40:18.602Z,74.50
2019-04-05T18:42:44.855Z,74.30
2019-04-05T18:45:11.565Z,74.40
2019-04-05T18:47:38.285Z,74.60
2019-04-05T18:50:08.758Z,74.60
2019-04-05T18:52:35.717Z,74.60
2019-04-05T18:55:05.239Z,74.90
2019-04-05T18:57:31.630Z,75.00
2019-04-05T18:59:57.890Z,74.90
2019-04-05T19:02:24.359Z,75.30
2019-04-05T19:04:50.878Z,75.30
2019-04-05T19:07:17.615Z,75.50
2019-04-05T19:09:44.815Z,75.50
2019-04-05T19:12:12.530Z,75.70
2019-04-05T19:14:40.554Z,75.90
2019-04-05T19:17:08.198Z,76.10
2019-04-05T19:19:36.095Z,76.30
2019-04-05T19:22:04.010Z,76.50
2019-04-05T19:24:31.862Z,76.80
2019-04-05T19:26:59.677Z,77.00
2019-04-05T19:29:27.600Z,77.00
2019-04-05T19:49:23.131Z,78.40
2019-04-05T19:51:50.834Z,78.80
2019-04-05T19:54:18.340Z,78.80
2019-04-05T19:56:46.030Z,79.00
2019-04-05T19:59:13.873Z,79.10
2019-04-05T20:01:41.663Z,79.50
2019-04-05T20:04:09.484Z,79.40
2019-04-05T20:06:37.317Z,79.50
2019-04-05T20:09:06.742Z,79.60
2019-04-05T20:11:34.381Z,79.70
2019-04-05T20:14:02.252Z,79.80
2019-04-05T20:16:29.969Z,80.00
2019-04-05T20:18:57.792Z,80.20
2019-04-05T20:21:24.837Z,80.20
2019-04-05T20:23:51.894Z,80.40
2019-04-05T20:26:18.852Z,80.40
2019-04-05T20:28:45.812Z,81.20
2019-04-05T20:31:12.378Z,80.50
2019-04-05T20:33:38.852Z,80.80
2019-04-05T20:36:05.131Z,80.80
2019-04-05T20:38:32.531Z,81.00
2019-04-05T20:40:58.865Z,81.00
2019-04-05T20:43:25.099Z,81.80
2019-04-05T20:45:51.464Z,81.20
2019-04-05T20:48:17.703Z,81.40
2019-04-05T20:50:43.933Z,81.40
2019-04-05T20:53:10.184Z,81.60
2019-04-05T20:55:37.456Z,81.50
2019-04-05T20:58:04.113Z,81.80
2019-04-05T21:00:30.336Z,81.90
2019-04-05T21:02:56.567Z,82.20
2019-04-05T21:05:25.593Z,82.40
2019-04-05T21:07:50.961Z,82.60
2019-04-05T21:10:17.210Z,82.80
2019-04-05T21:12:43.439Z,82.90
2019-04-05T21:15:09.934Z,82.90
2019-04-05T21:17:36.160Z,82.90
2019-04-05T21:20:06.227Z,82.70
2019-04-05T21:22:32.483Z,82.70
2019-04-05T21:24:58.739Z,82.60
2019-04-05T21:27:24.956Z,82.50
2019-04-05T21:29:51.255Z,82.40
2019-04-05T21:32:17.519Z,82.30
2019-04-05T21:34:43.762Z,81.90
2019-04-05T21:37:10.003Z,81.70
2019-04-05T21:39:36.224Z,81.70
2019-04-05T21:42:03.484Z,82.20
2019-04-05T21:44:29.699Z,81.50
2019-04-05T21:46:55.971Z,81.50
2019-04-05T21:49:22.250Z,81.40
2019-04-05T21:51:48.468Z,81.30
2019-04-05T21:54:14.689Z,81.40
2019-04-05T21:56:40.920Z,81.30
2019-04-05T21:59:07.161Z,81.20
2019-04-05T22:01:33.874Z,81.20
2019-04-05T22:04:00.704Z,81.10
2019-04-05T22:06:26.971Z,81.20
2019-04-05T22:08:53.243Z,81.00
2019-04-05T22:11:19.549Z,80.90
2019-04-05T22:13:45.793Z,80.90
2019-04-05T22:16:18.919Z,80.70
2019-04-05T22:18:45.165Z,80.70
2019-04-05T22:21:11.411Z,80.90
2019-04-05T22:23:37.653Z,80.60
2019-04-05T22:26:03.997Z,80.40
2019-04-05T22:28:30.252Z,80.40
2019-04-05T22:30:56.511Z,80.20
2019-04-05T22:33:22.732Z,80.00
2019-04-05T22:35:48.973Z,80.00
2019-04-05T22:38:15.263Z,79.70
2019-04-05T22:40:41.529Z,79.50
2019-04-05T22:43:07.754Z,79.50
2019-04-05T22:45:34.018Z,79.50
2019-04-05T22:48:00.272Z,79.50
2019-04-05T22:50:26.508Z,79.50
2019-04-05T22:52:52.734Z,79.40
2019-04-05T22:55:18.973Z,79.40
2019-04-05T22:57:45.213Z,79.30
2019-04-05T23:00:11.963Z,78.40
2019-04-05T23:02:38.226Z,78.90
2019-04-05T23:05:05.677Z,79.00
2019-04-05T23:07:31.920Z,78.90
2019-04-05T23:09:58.169Z,79.00
2019-04-05T23:12:24.393Z,78.90
2019-04-05T23:14:50.686Z,78.90
2019-04-05T23:17:16.905Z,78.90
2019-04-05T23:19:43.162Z,78.80
2019-04-05T23:22:09.504Z,78.80
2019-04-05T23:24:35.845Z,78.00
2019-04-05T23:27:02.080Z,77.80
2019-04-05T23:29:28.320Z,78.10
2019-04-05T23:31:54.592Z,78.20
2019-04-05T23:34:20.855Z,77.60
2019-04-05T23:36:47.078Z,77.90
2019-04-05T23:39:13.334Z,79.10
2019-04-05T23:41:39.686Z,78.30
2019-04-05T23:44:05.914Z,78.20
2019-04-05T23:46:32.158Z,78.30
2019-04-05T23:48:58.420Z,78.20
2019-04-05T23:51:24.646Z,78.30
2019-04-05T23:53:50.892Z,78.40
2019-04-05T23:56:17.251Z,78.50
2019-04-05T23:58:43.473Z,78.50
